Time;durP1;ratioP1;P1;durP2;ratioP2;P2;SDS_P1;SDS_P2;PMS_P1;PMS_P2;Temp;Humidity;BMP_temperature;BMP_pressure;BME280_temperature;BME280_humidity;BME280_pressure;Samples;Min_cycle;Max_cycle;Signal;HPM_P1;HPM_P2
2023/02/05 00:00:28;;;;;;;;;;;20.80;59.40;;;;;;1511492;77;717;-65
2023/02/05 00:02:30;;;;;;;;;;;20.80;59.30;;;;;;1512357;77;1957;-65
2023/02/05 00:04:33;;;;;;;;;;;20.80;59.40;;;;;;1515247;77;1145;-65
2023/02/05 00:06:34;;;;;;;;;;;20.90;59.50;;;;;;1517285;77;804;-70
2023/02/05 00:08:36;;;;;;;;;;;20.80;59.50;;;;;;1510900;77;749;-66
2023/02/05 00:10:38;;;;;;;;;;;20.80;59.60;;;;;;1511668;77;744;-67
2023/02/05 00:12:40;;;;;;;;;;;20.70;59.90;;;;;;1511201;77;751;-67
2023/02/05 00:14:42;;;;;;;;;;;20.60;60.20;;;;;;1510045;77;1054;-66
2023/02/05 00:16:44;;;;;;;;;;;20.60;60.30;;;;;;1509076;77;727;-68
2023/02/05 00:18:46;;;;;;;;;;;20.60;60.00;;;;;;1514525;77;777;-66
2023/02/05 00:20:48;;;;;;;;;;;20.70;59.70;;;;;;1517414;77;730;-67
2023/02/05 00:22:49;;;;;;;;;;;20.70;59.50;;;;;;1518293;77;1950;-66
2023/02/05 00:24:51;;;;;;;;;;;20.70;59.40;;;;;;1511939;77;1145;-67
2023/02/05 00:26:53;;;;;;;;;;;20.70;60.30;;;;;;1506736;77;643;-65
2023/02/05 00:28:55;;;;;;;;;;;20.70;59.60;;;;;;1510174;77;636;-67
2023/02/05 00:30:57;;;;;;;;;;;20.70;59.50;;;;;;1512372;77;788;-67
2023/02/05 00:32:59;;;;;;;;;;;20.70;59.30;;;;;;1515171;77;1135;-66
2023/02/05 00:35:01;;;;;;;;;;;20.70;59.10;;;;;;1504995;78;774;-65
2023/02/05 00:37:02;;;;;;;;;;;20.80;58.90;;;;;;1515101;77;742;-66
2023/02/05 00:39:04;;;;;;;;;;;20.80;58.80;;;;;;1507667;77;811;-67
2023/02/05 00:41:06;;;;;;;;;;;20.80;58.70;;;;;;1508694;77;713;-67
2023/02/05 00:43:08;;;;;;;;;;;20.80;58.60;;;;;;1517370;77;1970;-67
2023/02/05 00:45:10;;;;;;;;;;;20.80;58.60;;;;;;1507789;77;717;-67
2023/02/05 00:47:12;;;;;;;;;;;20.80;58.50;;;;;;1512136;77;802;-68
2023/02/05 00:49:14;;;;;;;;;;;20.80;58.40;;;;;;1512911;76;751;-66
2023/02/05 00:51:16;;;;;;;;;;;20.80;58.40;;;;;;1511066;78;1480;-67
2023/02/05 00:53:37;;;;;;;;;;;20.80;58.40;;;;;;1514836;77;1170;-68
2023/02/05 00:55:39;;;;;;;;;;;20.80;58.30;;;;;;1554342;74;768;-69
2023/02/05 00:57:41;;;;;;;;;;;20.80;58.40;;;;;;1550950;74;759;-68
2023/02/05 00:59:43;;;;;;;;;;;20.80;58.30;;;;;;1553794;74;811;-68
2023/02/05 01:01:44;;;;;;;;;;;20.80;58.30;;;;;;1553450;74;799;-68
2023/02/05 01:03:46;;;;;;;;;;;20.70;58.40;;;;;;1551675;74;1944;-68
2023/02/05 01:05:48;;;;;;;;;;;20.70;58.40;;;;;;1551287;74;630;-68
2023/02/05 01:07:50;;;;;;;;;;;20.70;58.30;;;;;;1551613;74;636;-68
2023/02/05 01:09:52;;;;;;;;;;;20.70;58.40;;;;;;1554130;74;817;-68
2023/02/05 01:11:54;;;;;;;;;;;20.80;58.40;;;;;;1547935;74;794;-67
2023/02/05 01:13:56;;;;;;;;;;;20.70;58.30;;;;;;1548796;74;1134;-69
2023/02/05 01:15:57;;;;;;;;;;;20.80;58.30;;;;;;1553415;74;788;-68
2023/02/05 01:17:59;;;;;;;;;;;20.80;58.30;;;;;;1552052;74;795;-70
2023/02/05 01:20:01;;;;;;;;;;;20.80;58.30;;;;;;1555954;74;798;-70
2023/02/05 01:22:03;;;;;;;;;;;20.70;58.30;;;;;;1548342;75;727;-70
2023/02/05 01:24:05;;;;;;;;;;;20.80;58.30;;;;;;1558073;74;1932;-70
2023/02/05 01:26:07;;;;;;;;;;;20.80;58.40;;;;;;1554249;74;711;-71
2023/02/05 01:28:09;;;;;;;;;;;20.70;58.40;;;;;;1553618;74;794;-71
2023/02/05 01:30:11;;;;;;;;;;;20.70;58.40;;;;;;1562835;74;782;-71
2023/02/05 01:32:13;;;;;;;;;;;20.70;58.40;;;;;;1554046;74;790;-70
2023/02/05 01:34:15;;;;;;;;;;;20.70;58.40;;;;;;1551430;74;1112;-71
2023/02/05 01:36:17;;;;;;;;;;;20.70;58.40;;;;;;1552247;74;800;-70
2023/02/05 01:38:19;;;;;;;;;;;20.70;58.40;;;;;;1554705;74;736;-71
2023/02/05 01:40:20;;;;;;;;;;;20.70;58.40;;;;;;1550821;76;711;-72
2023/02/05 01:42:24;;;;;;;;;;;20.70;58.40;;;;;;1553510;74;673;-72
2023/02/05 01:44:27;;;;;;;;;;;20.80;58.40;;;;;;1553198;76;1916;-71
2023/02/05 01:46:29;;;;;;;;;;;20.70;58.40;;;;;;1551729;74;717;-70
2023/02/05 01:48:36;;;;;;;;;;;20.70;58.50;;;;;;1556034;76;1689;-70
2023/02/05 01:50:41;;;;;;;;;;;20.70;58.50;;;;;;1552737;74;935;-70
2023/02/05 01:52:43;;;;;;;;;;;20.70;58.50;;;;;;1558258;74;783;-71
2023/02/05 01:54:47;;;;;;;;;;;20.70;58.50;;;;;;1561803;74;1097;-71
2023/02/05 01:56:50;;;;;;;;;;;20.60;58.50;;;;;;1552230;74;741;-70
2023/02/05 01:58:59;;;;;;;;;;;20.70;58.50;;;;;;1552480;76;720;-73
2023/02/05 02:01:01;;;;;;;;;;;20.70;58.50;;;;;;1556389;74;726;-71
2023/02/05 02:03:03;;;;;;;;;;;20.70;58.50;;;;;;1549595;74;1940;-71
2023/02/05 02:05:09;;;;;;;;;;;20.70;58.50;;;;;;1552078;74;1116;-72
2023/02/05 02:07:12;;;;;;;;;;;20.70;58.60;;;;;;1552135;74;733;-70
2023/02/05 02:09:14;;;;;;;;;;;20.60;58.70;;;;;;1553135;74;932;-71
2023/02/05 02:11:16;;;;;;;;;;;20.60;58.70;;;;;;1557831;74;711;-71
2023/02/05 02:13:19;;;;;;;;;;;20.60;58.70;;;;;;1557784;74;760;-71
2023/02/05 02:15:22;;;;;;;;;;;20.60;58.70;;;;;;1545789;74;1132;-71
2023/02/05 02:17:23;;;;;;;;;;;20.60;58.70;;;;;;1551115;74;757;-71
2023/02/05 02:19:33;;;;;;;;;;;20.60;58.70;;;;;;1551166;76;728;-72
2023/02/05 02:21:39;;;;;;;;;;;20.60;59.00;;;;;;1547698;74;1868;-72
2023/02/05 02:23:59;;;;;;;;;;;20.60;58.90;;;;;;1554923;74;1929;-67
2023/02/05 02:26:19;;;;;;;;;;;20.60;60.10;;;;;;1560929;74;741;-70
2023/02/05 02:28:22;;;;;;;;;;;20.50;60.40;;;;;;1554167;75;769;-71
2023/02/05 02:30:26;;;;;;;;;;;20.30;61.30;;;;;;1540817;74;1358;-73
2023/02/05 02:32:32;;;;;;;;;;;20.30;61.30;;;;;;1562275;74;1091;-70
2023/02/05 02:34:35;;;;;;;;;;;20.30;61.30;;;;;;1553997;74;1167;-71
2023/02/05 02:36:38;;;;;;;;;;;20.30;61.70;;;;;;1556821;74;998;-71
2023/02/05 02:38:41;;;;;;;;;;;20.20;61.40;;;;;;1553024;74;783;-71
2023/02/05 02:40:44;;;;;;;;;;;20.30;61.50;;;;;;1567151;74;1035;-72
2023/02/05 02:42:47;;;;;;;;;;;20.30;61.20;;;;;;1570208;74;734;-68
2023/02/05 02:44:51;;;;;;;;;;;20.30;61.00;;;;;;1560330;74;1920;-73
2023/02/05 02:46:54;;;;;;;;;;;20.40;60.70;;;;;;1569772;74;2005;-69
2023/02/05 02:48:56;;;;;;;;;;;20.40;60.60;;;;;;1569453;74;727;-72
2023/02/05 02:50:58;;;;;;;;;;;20.40;60.30;;;;;;1568705;74;705;-72
2023/02/05 02:53:02;;;;;;;;;;;20.30;61.10;;;;;;1568150;74;784;-73
2023/02/05 02:55:06;;;;;;;;;;;20.30;61.20;;;;;;1573171;74;1817;-72
2023/02/05 02:57:08;;;;;;;;;;;20.20;61.10;;;;;;1563455;74;740;-72
2023/02/05 02:59:11;;;;;;;;;;;20.10;61.30;;;;;;1559676;74;712;-72
2023/02/05 03:01:13;;;;;;;;;;;20.10;61.40;;;;;;1568679;74;804;-71
2023/02/05 03:03:15;;;;;;;;;;;20.10;61.50;;;;;;1564829;74;1943;-72
2023/02/05 03:05:18;;;;;;;;;;;20.10;61.60;;;;;;1559165;74;1101;-73
2023/02/05 03:07:22;;;;;;;;;;;20.00;61.50;;;;;;1562919;76;745;-72
2023/02/05 03:09:29;;;;;;;;;;;20.10;61.70;;;;;;1558892;74;685;-72
2023/02/05 03:11:30;;;;;;;;;;;20.10;61.60;;;;;;1559862;74;1821;-71
2023/02/05 03:13:32;;;;;;;;;;;20.00;61.60;;;;;;1560802;74;1146;-70
2023/02/05 03:15:34;;;;;;;;;;;20.00;61.70;;;;;;1555344;74;612;-72
2023/02/05 03:17:36;;;;;;;;;;;20.00;61.70;;;;;;1569681;74;808;-73
2023/02/05 03:19:38;;;;;;;;;;;20.00;61.70;;;;;;1551497;74;703;-70
2023/02/05 03:21:41;;;;;;;;;;;20.00;61.80;;;;;;1570358;75;738;-73
2023/02/05 03:23:43;;;;;;;;;;;20.00;61.80;;;;;;1573281;74;1930;-71
2023/02/05 03:25:45;;;;;;;;;;;20.00;62.00;;;;;;1564724;74;565;-72
2023/02/05 03:27:47;;;;;;;;;;;19.90;62.10;;;;;;1559618;74;759;-72
2023/02/05 03:29:49;;;;;;;;;;;19.90;62.00;;;;;;1556658;74;747;-73
2023/02/05 03:32:09;;;;;;;;;;;19.90;62.10;;;;;;1567207;74;745;-72
2023/02/05 03:34:13;;;;;;;;;;;19.90;62.20;;;;;;1550032;74;1146;-71
2023/02/05 03:36:33;;;;;;;;;;;19.90;62.20;;;;;;1556864;76;737;-71
2023/02/05 03:38:53;;;;;;;;;;;19.90;62.30;;;;;;1570031;74;736;-71
2023/02/05 03:40:57;;;;;;;;;;;19.80;62.10;;;;;;1564685;74;1545;-71
2023/02/05 03:43:17;;;;;;;;;;;19.90;62.40;;;;;;1577661;74;687;-71
2023/02/05 03:45:20;;;;;;;;;;;19.90;62.40;;;;;;1555452;74;1125;-70
2023/02/05 03:47:27;;;;;;;;;;;19.90;62.30;;;;;;1559101;76;734;-70
2023/02/05 03:49:33;;;;;;;;;;;20.00;62.00;;;;;;1559783;74;727;-73
2023/02/05 03:51:37;;;;;;;;;;;20.00;61.90;;;;;;1564155;75;1730;-73
2023/02/05 03:53:39;;;;;;;;;;;20.00;62.10;;;;;;1558072;74;1176;-71
2023/02/05 03:55:43;;;;;;;;;;;19.90;62.20;;;;;;1578269;74;711;-70
2023/02/05 03:57:46;;;;;;;;;;;19.90;62.30;;;;;;1568168;74;873;-70
2023/02/05 03:59:48;;;;;;;;;;;19.90;62.70;;;;;;1566382;74;2129;-69
2023/02/05 04:01:50;;;;;;;;;;;19.90;62.90;;;;;;1558624;76;793;-70
2023/02/05 04:03:52;;;;;;;;;;;19.80;62.80;;;;;;1574151;74;1946;-72
2023/02/05 04:05:55;;;;;;;;;;;19.80;62.60;;;;;;1557843;74;790;-70
2023/02/05 04:07:56;;;;;;;;;;;19.90;62.70;;;;;;1568378;74;798;-71
2023/02/05 04:09:58;;;;;;;;;;;19.90;62.60;;;;;;1561891;74;618;-73
2023/02/05 04:12:00;;;;;;;;;;;20.00;62.40;;;;;;1572093;74;744;-71
2023/02/05 04:14:02;;;;;;;;;;;20.00;62.30;;;;;;1564783;74;1154;-72
2023/02/05 04:16:04;;;;;;;;;;;20.00;62.20;;;;;;1567846;74;797;-71
2023/02/05 04:18:07;;;;;;;;;;;20.00;61.70;;;;;;1570902;74;814;-71
2023/02/05 04:20:09;;;;;;;;;;;20.20;61.60;;;;;;1562157;74;753;-71
2023/02/05 04:22:11;;;;;;;;;;;20.20;61.60;;;;;;1561659;74;763;-71
2023/02/05 04:24:13;;;;;;;;;;;20.10;61.50;;;;;;1548768;74;1933;-71
2023/02/05 04:26:14;;;;;;;;;;;20.10;61.40;;;;;;1565425;74;781;-71
2023/02/05 04:28:16;;;;;;;;;;;20.20;61.30;;;;;;1562805;74;732;-70
2023/02/05 04:30:18;;;;;;;;;;;20.20;61.50;;;;;;1549340;74;685;-70
2023/02/05 04:32:20;;;;;;;;;;;20.10;61.60;;;;;;1554597;75;692;-71
2023/02/05 04:34:22;;;;;;;;;;;20.20;61.60;;;;;;1566339;74;1136;-69
2023/02/05 04:36:24;;;;;;;;;;;20.20;61.10;;;;;;1551201;74;1530;-70
2023/02/05 04:38:26;;;;;;;;;;;20.20;60.80;;;;;;1570897;74;717;-71
2023/02/05 04:40:28;;;;;;;;;;;20.30;60.90;;;;;;1562269;74;784;-70
2023/02/05 04:42:30;;;;;;;;;;;20.30;60.60;;;;;;1562500;74;688;-70
2023/02/05 04:44:32;;;;;;;;;;;20.40;60.30;;;;;;1545054;74;1956;-70
2023/02/05 04:46:34;;;;;;;;;;;20.30;60.20;;;;;;1560762;76;803;-70
2023/02/05 04:48:36;;;;;;;;;;;20.40;60.10;;;;;;1558093;74;766;-70
2023/02/05 04:50:38;;;;;;;;;;;20.40;60.10;;;;;;1562645;74;785;-70
2023/02/05 04:52:40;;;;;;;;;;;20.40;60.00;;;;;;1570034;74;684;-72
2023/02/05 04:54:42;;;;;;;;;;;20.40;59.90;;;;;;1555479;74;1175;-71
2023/02/05 04:56:45;;;;;;;;;;;20.50;59.70;;;;;;1559930;76;785;-70
2023/02/05 04:58:47;;;;;;;;;;;20.50;59.70;;;;;;1553391;74;708;-70
2023/02/05 05:00:49;;;;;;;;;;;20.40;59.70;;;;;;1559011;74;737;-70
2023/02/05 05:02:51;;;;;;;;;;;20.40;59.80;;;;;;1570416;74;783;-70
2023/02/05 05:04:53;;;;;;;;;;;20.30;60.50;;;;;;1559342;74;1944;-69
2023/02/05 05:06:55;;;;;;;;;;;20.30;60.40;;;;;;1557405;74;758;-72
2023/02/05 05:08:57;;;;;;;;;;;20.20;60.40;;;;;;1564097;74;740;-70
2023/02/05 05:10:59;;;;;;;;;;;20.30;60.70;;;;;;1578483;74;664;-71
2023/02/05 05:13:01;;;;;;;;;;;20.20;60.60;;;;;;1550207;74;735;-71
2023/02/05 05:15:03;;;;;;;;;;;20.30;60.50;;;;;;1565848;74;1146;-71
2023/02/05 05:17:05;;;;;;;;;;;20.30;60.30;;;;;;1561704;74;783;-71
2023/02/05 05:19:07;;;;;;;;;;;20.40;60.10;;;;;;1553370;74;781;-71
2023/02/05 05:21:09;;;;;;;;;;;20.40;60.00;;;;;;1558745;74;784;-68
2023/02/05 05:23:11;;;;;;;;;;;20.30;60.10;;;;;;1562218;74;724;-71
2023/02/05 05:25:13;;;;;;;;;;;20.30;60.40;;;;;;1557544;74;1952;-70
2023/02/05 05:27:15;;;;;;;;;;;20.30;60.40;;;;;;1560944;74;537;-72
2023/02/05 05:29:17;;;;;;;;;;;20.30;60.50;;;;;;1549235;74;720;-71
2023/02/05 05:31:19;;;;;;;;;;;20.30;60.30;;;;;;1558224;74;681;-71
2023/02/05 05:33:21;;;;;;;;;;;20.40;60.10;;;;;;1565352;74;1673;-71
2023/02/05 05:35:23;;;;;;;;;;;20.30;60.00;;;;;;1564259;75;751;-72
2023/02/05 05:37:25;;;;;;;;;;;20.40;60.00;;;;;;1559293;74;711;-69
2023/02/05 05:44:06;;;;;;;;;;;20.30;60.20;;;;;;1559836;74;1939;-71
2023/02/05 05:46:08;;;;;;;;;;;20.20;60.50;;;;;;1572138;74;692;-72
2023/02/05 05:48:10;;;;;;;;;;;20.20;60.70;;;;;;1570204;74;811;-72
2023/02/05 05:50:12;;;;;;;;;;;20.10;60.70;;;;;;1567724;74;819;-71
2023/02/05 05:52:14;;;;;;;;;;;20.20;60.30;;;;;;1564053;74;790;-71
2023/02/05 05:54:16;;;;;;;;;;;20.40;60.10;;;;;;1561411;76;1178;-72
2023/02/05 05:56:17;;;;;;;;;;;20.30;60.40;;;;;;1569413;74;814;-71
2023/02/05 05:58:19;;;;;;;;;;;20.30;60.30;;;;;;1563860;74;912;-71
2023/02/05 06:00:21;;;;;;;;;;;20.20;60.40;;;;;;1559545;74;702;-71
2023/02/05 06:02:23;;;;;;;;;;;20.20;60.60;;;;;;1566343;74;669;-73
2023/02/05 06:04:25;;;;;;;;;;;20.10;60.60;;;;;;1563181;74;1948;-72
2023/02/05 06:06:27;;;;;;;;;;;20.10;60.40;;;;;;1564053;74;775;-72
2023/02/05 06:08:29;;;;;;;;;;;20.20;60.20;;;;;;1581288;74;702;-73
2023/02/05 06:10:31;;;;;;;;;;;20.30;60.20;;;;;;1567828;74;740;-72
2023/02/05 06:12:33;;;;;;;;;;;20.30;59.80;;;;;;1565075;76;806;-72
2023/02/05 06:14:35;;;;;;;;;;;20.40;59.60;;;;;;1555813;74;1149;-74
2023/02/05 06:16:37;;;;;;;;;;;20.40;59.50;;;;;;1556491;74;742;-70
2023/02/05 06:18:39;;;;;;;;;;;20.40;59.40;;;;;;1565346;74;742;-72
2023/02/05 06:20:41;;;;;;;;;;;20.50;59.40;;;;;;1552298;74;756;-71
2023/02/05 06:22:43;;;;;;;;;;;20.50;59.80;;;;;;1559075;74;1022;-71
2023/02/05 06:24:45;;;;;;;;;;;20.30;60.00;;;;;;1571713;74;1949;-66
2023/02/05 06:26:46;;;;;;;;;;;20.30;60.20;;;;;;1546598;74;772;-66
2023/02/05 06:28:48;;;;;;;;;;;20.30;60.40;;;;;;1550013;74;1331;-66
2023/02/05 06:30:50;;;;;;;;;;;20.30;60.30;;;;;;1564920;74;744;-66
2023/02/05 06:32:52;;;;;;;;;;;20.40;60.10;;;;;;1571069;74;740;-66
2023/02/05 06:34:54;;;;;;;;;;;20.40;60.00;;;;;;1555649;74;1087;-68
2023/02/05 06:36:56;;;;;;;;;;;20.40;60.00;;;;;;1557599;74;746;-66
2023/02/05 06:38:58;;;;;;;;;;;20.40;60.00;;;;;;1567780;74;779;-67
2023/02/05 06:41:00;;;;;;;;;;;20.30;60.30;;;;;;1558906;74;876;-65
2023/02/05 06:43:02;;;;;;;;;;;20.30;60.20;;;;;;1569738;74;787;-66
2023/02/05 06:45:03;;;;;;;;;;;20.40;60.20;;;;;;1566980;74;2313;-66
2023/02/05 06:47:05;;;;;;;;;;;20.40;60.00;;;;;;1567395;74;902;-66
2023/02/05 06:49:07;;;;;;;;;;;20.40;60.00;;;;;;1564959;74;767;-67
2023/02/05 06:51:09;;;;;;;;;;;20.50;60.10;;;;;;1569015;74;750;-71
2023/02/05 06:53:11;;;;;;;;;;;20.50;60.00;;;;;;1563368;76;724;-67
2023/02/05 06:55:13;;;;;;;;;;;20.50;59.90;;;;;;1541718;74;2057;-67
2023/02/05 06:57:15;;;;;;;;;;;20.50;59.70;;;;;;1518860;75;745;-65
2023/02/05 06:59:17;;;;;;;;;;;20.50;59.60;;;;;;1532049;75;733;-65
2023/02/05 07:01:18;;;;;;;;;;;20.50;59.60;;;;;;1531135;75;740;-66
2023/02/05 07:03:20;;;;;;;;;;;20.50;59.60;;;;;;1524940;75;660;-65
2023/02/05 07:05:22;;;;;;;;;;;20.50;59.70;;;;;;1530464;75;1955;-67
2023/02/05 07:07:24;;;;;;;;;;;20.60;59.60;;;;;;1534161;75;768;-65
2023/02/05 07:09:26;;;;;;;;;;;20.60;59.50;;;;;;1528098;76;694;-65
2023/02/05 07:11:28;;;;;;;;;;;20.60;59.30;;;;;;1531039;75;635;-65
2023/02/05 07:13:30;;;;;;;;;;;20.60;59.20;;;;;;1520063;75;696;-66
2023/02/05 07:15:31;;;;;;;;;;;20.60;59.10;;;;;;1522414;77;1120;-66
2023/02/05 07:17:33;;;;;;;;;;;20.70;59.00;;;;;;1529845;75;747;-65
2023/02/05 07:19:36;;;;;;;;;;;20.60;58.80;;;;;;1537528;75;797;-66
2023/02/05 07:21:38;;;;;;;;;;;20.60;58.80;;;;;;1541023;75;834;-67
2023/02/05 07:23:40;;;;;;;;;;;20.60;58.70;;;;;;1534489;75;746;-66
2023/02/05 07:25:42;;;;;;;;;;;20.60;58.60;;;;;;1522399;75;1951;-67
2023/02/05 07:27:43;;;;;;;;;;;20.60;58.70;;;;;;1522934;75;786;-65
2023/02/05 07:29:45;;;;;;;;;;;20.60;58.60;;;;;;1525510;75;756;-65
2023/02/05 07:31:50;;;;;;;;;;;20.60;58.60;;;;;;1515770;76;712;-65
2023/02/05 07:33:52;;;;;;;;;;;20.60;58.50;;;;;;1534215;75;1135;-65
2023/02/05 07:35:54;;;;;;;;;;;20.60;58.50;;;;;;1526473;77;670;-66
2023/02/05 07:37:56;;;;;;;;;;;20.60;58.50;;;;;;1516252;77;734;-65
2023/02/05 07:39:58;;;;;;;;;;;20.60;58.50;;;;;;1538378;75;697;-65
2023/02/05 07:42:00;;;;;;;;;;;20.60;58.50;;;;;;1526529;75;751;-65
2023/02/05 07:44:02;;;;;;;;;;;20.60;58.40;;;;;;1533700;77;1154;-65
2023/02/05 07:46:04;;;;;;;;;;;20.60;58.50;;;;;;1533797;75;1952;-71
2023/02/05 07:48:06;;;;;;;;;;;20.60;58.50;;;;;;1532247;75;690;-65
2023/02/05 07:50:08;;;;;;;;;;;20.60;58.40;;;;;;1522982;77;687;-67
2023/02/05 07:52:10;;;;;;;;;;;20.60;58.50;;;;;;1540373;75;694;-65
2023/02/05 07:54:13;;;;;;;;;;;20.60;58.50;;;;;;1528573;77;1148;-65
2023/02/05 07:56:15;;;;;;;;;;;20.60;58.40;;;;;;1531158;77;769;-65
2023/02/05 07:58:17;;;;;;;;;;;20.60;58.40;;;;;;1531959;75;683;-65
2023/02/05 08:00:19;;;;;;;;;;;20.60;58.50;;;;;;1533444;77;724;-65
2023/02/05 08:02:21;;;;;;;;;;;20.50;58.40;;;;;;1538157;75;787;-69
2023/02/05 08:04:23;;;;;;;;;;;20.50;58.50;;;;;;1538839;76;1158;-65
2023/02/05 08:06:24;;;;;;;;;;;20.60;58.50;;;;;;1532229;75;1922;-65
2023/02/05 08:08:26;;;;;;;;;;;20.60;58.50;;;;;;1533990;75;669;-66
2023/02/05 08:10:28;;;;;;;;;;;20.50;58.50;;;;;;1528745;77;739;-65
2023/02/05 08:12:30;;;;;;;;;;;20.60;58.50;;;;;;1526143;75;706;-64
2023/02/05 08:14:32;;;;;;;;;;;20.60;58.40;;;;;;1519509;77;1145;-65
2023/02/05 08:16:34;;;;;;;;;;;20.60;58.50;;;;;;1537919;75;775;-67
2023/02/05 08:18:36;;;;;;;;;;;20.50;58.50;;;;;;1545074;75;813;-65
2023/02/05 08:20:37;;;;;;;;;;;20.60;58.50;;;;;;1530640;75;1478;-62
2023/02/05 08:22:40;;;;;;;;;;;20.60;58.50;;;;;;1540228;75;725;-64
2023/02/05 08:24:42;;;;;;;;;;;20.60;58.60;;;;;;1532991;75;1165;-65
2023/02/05 08:26:44;;;;;;;;;;;20.50;58.60;;;;;;1533780;75;1943;-65
2023/02/05 08:28:46;;;;;;;;;;;20.50;58.70;;;;;;1523727;77;780;-65
2023/02/05 08:30:47;;;;;;;;;;;20.50;58.80;;;;;;1523796;76;783;-65
2023/02/05 08:32:49;;;;;;;;;;;20.50;58.70;;;;;;1531798;77;730;-65
2023/02/05 08:34:51;;;;;;;;;;;20.50;58.90;;;;;;1517093;75;1172;-66
2023/02/05 08:36:53;;;;;;;;;;;20.50;58.90;;;;;;1515752;75;806;-64
2023/02/05 08:38:55;;;;;;;;;;;20.40;58.90;;;;;;1532227;75;724;-64
2023/02/05 08:40:57;;;;;;;;;;;20.40;58.90;;;;;;1540831;75;608;-65
2023/02/05 08:43:01;;;;;;;;;;;20.40;59.00;;;;;;1539835;75;689;-66
2023/02/05 08:45:04;;;;;;;;;;;20.40;59.10;;;;;;1539444;75;1084;-68
2023/02/05 08:47:06;;;;;;;;;;;20.50;59.10;;;;;;1540434;77;841;-67
2023/02/05 08:49:08;;;;;;;;;;;20.40;59.20;;;;;;1536083;77;761;-65
2023/02/05 08:51:10;;;;;;;;;;;20.40;59.20;;;;;;1537498;75;644;-65
2023/02/05 08:53:12;;;;;;;;;;;20.40;59.20;;;;;;1538143;75;674;-68
2023/02/05 08:55:14;;;;;;;;;;;20.40;59.60;;;;;;1539550;75;1119;-67
2023/02/05 08:57:16;;;;;;;;;;;20.50;59.80;;;;;;1541731;75;700;-64
2023/02/05 08:59:18;;;;;;;;;;;20.50;59.80;;;;;;1532140;75;794;-68
2023/02/05 09:01:20;;;;;;;;;;;20.50;59.90;;;;;;1535654;77;719;-63
2023/02/05 09:03:22;;;;;;;;;;;20.50;60.10;;;;;;1539931;75;697;-65
2023/02/05 09:05:24;;;;;;;;;;;20.50;60.10;;;;;;1539060;76;1928;-66
2023/02/05 09:07:26;;;;;;;;;;;20.50;60.10;;;;;;1539098;76;659;-67
2023/02/05 09:09:29;;;;;;;;;;;20.50;60.20;;;;;;1538549;76;702;-66
2023/02/05 09:11:31;;;;;;;;;;;20.60;60.20;;;;;;1540277;75;640;-66
2023/02/05 09:13:33;;;;;;;;;;;20.50;60.20;;;;;;1530916;75;844;-66
2023/02/05 09:15:34;;;;;;;;;;;20.50;60.30;;;;;;1535018;75;1139;-66
2023/02/05 09:17:36;;;;;;;;;;;20.50;60.30;;;;;;1535300;75;1428;-64
2023/02/05 09:19:38;;;;;;;;;;;20.60;60.30;;;;;;1535801;76;794;-66
2023/02/05 09:21:40;;;;;;;;;;;20.60;60.30;;;;;;1531582;77;794;-65
2023/02/05 09:23:42;;;;;;;;;;;20.60;60.30;;;;;;1530157;77;789;-63
2023/02/05 09:25:44;;;;;;;;;;;20.60;60.20;;;;;;1523024;75;1943;-65
2023/02/05 09:27:46;;;;;;;;;;;20.60;60.20;;;;;;1536243;75;719;-64
2023/02/05 09:29:48;;;;;;;;;;;20.60;60.20;;;;;;1538105;75;705;-65
2023/02/05 09:31:50;;;;;;;;;;;20.60;60.10;;;;;;1530319;75;743;-67
2023/02/05 09:33:52;;;;;;;;;;;20.60;60.10;;;;;;1535331;75;1141;-65
2023/02/05 09:35:53;;;;;;;;;;;20.60;60.10;;;;;;1526182;75;760;-66
2023/02/05 09:37:56;;;;;;;;;;;20.70;60.20;;;;;;1536984;75;715;-64
2023/02/05 09:39:57;;;;;;;;;;;20.70;60.10;;;;;;1532875;75;748;-66
2023/02/05 09:42:00;;;;;;;;;;;20.70;60.10;;;;;;1537301;77;710;-64
2023/02/05 09:44:06;;;;;;;;;;;20.70;60.10;;;;;;1537094;75;1155;-64
2023/02/05 09:46:15;;;;;;;;;;;20.70;60.10;;;;;;1532425;75;1919;-66
2023/02/05 09:48:36;;;;;;;;;;;20.70;60.20;;;;;;1540886;75;730;-68
2023/02/05 09:50:37;;;;;;;;;;;20.70;60.20;;;;;;1530096;75;719;-69
2023/02/05 09:52:40;;;;;;;;;;;20.60;60.10;;;;;;1506027;77;823;-69
2023/02/05 09:54:42;;;;;;;;;;;20.70;60.20;;;;;;1543378;76;1141;-65
2023/02/05 09:56:44;;;;;;;;;;;20.70;60.20;;;;;;1535779;76;784;-64
2023/02/05 09:58:48;;;;;;;;;;;20.70;60.20;;;;;;1544312;76;766;-66
2023/02/05 10:00:58;;;;;;;;;;;20.70;60.20;;;;;;1556611;76;762;-65
2023/02/05 10:03:10;;;;;;;;;;;20.70;60.10;;;;;;1517115;76;1533;-65
2023/02/05 10:05:13;;;;;;;;;;;20.80;60.10;;;;;;1523663;76;1100;-65
2023/02/05 10:07:25;;;;;;;;;;;20.80;60.10;;;;;;1548684;76;1877;-66
2023/02/05 10:09:45;;;;;;;;;;;20.80;60.00;;;;;;1548548;76;710;-69
2023/02/05 10:11:51;;;;;;;;;;;20.80;60.00;;;;;;1542913;76;766;-66
2023/02/05 10:13:54;;;;;;;;;;;20.80;59.80;;;;;;1544406;75;1506;-67
2023/02/05 10:15:58;;;;;;;;;;;20.80;59.60;;;;;;1544282;76;1745;-66
2023/02/05 10:18:18;;;;;;;;;;;20.90;59.50;;;;;;1550470;76;1883;-66
2023/02/05 10:20:24;;;;;;;;;;;20.90;59.40;;;;;;1538095;76;603;-67
2023/02/05 10:22:27;;;;;;;;;;;20.90;59.30;;;;;;1538820;76;754;-67
2023/02/05 10:24:33;;;;;;;;;;;20.90;59.20;;;;;;1533709;76;1140;-66
2023/02/05 10:26:37;;;;;;;;;;;20.90;59.10;;;;;;1544620;76;1956;-66
2023/02/05 10:28:49;;;;;;;;;;;20.90;59.10;;;;;;1548199;76;694;-67
2023/02/05 10:30:53;;;;;;;;;;;20.90;59.00;;;;;;1539031;76;708;-66
2023/02/05 10:32:56;;;;;;;;;;;20.90;59.00;;;;;;1527877;75;1542;-69
2023/02/05 10:35:01;;;;;;;;;;;20.90;58.90;;;;;;1547366;76;1146;-66
2023/02/05 10:37:02;;;;;;;;;;;21.00;58.80;;;;;;1541072;75;1620;-66
2023/02/05 10:39:06;;;;;;;;;;;21.00;58.80;;;;;;1537779;76;656;-66
2023/02/05 10:41:15;;;;;;;;;;;20.90;58.70;;;;;;1512485;78;1273;-66
2023/02/05 10:43:28;;;;;;;;;;;20.90;58.70;;;;;;1530117;76;777;-66
2023/02/05 10:45:30;;;;;;;;;;;20.90;58.70;;;;;;1537874;76;1107;-66
2023/02/05 10:47:34;;;;;;;;;;;20.90;58.70;;;;;;1542374;76;1929;-67
2023/02/05 10:49:46;;;;;;;;;;;20.90;58.70;;;;;;1536314;76;725;-67
2023/02/05 10:51:48;;;;;;;;;;;20.90;58.60;;;;;;1544651;76;717;-66
2023/02/05 10:53:50;;;;;;;;;;;20.90;58.60;;;;;;1538562;76;1146;-67
2023/02/05 10:55:52;;;;;;;;;;;20.90;58.70;;;;;;1520250;76;733;-66
2023/02/05 10:57:54;;;;;;;;;;;20.90;58.70;;;;;;1532822;76;767;-67
2023/02/05 10:59:57;;;;;;;;;;;20.90;58.70;;;;;;1546670;76;726;-66
2023/02/05 11:02:04;;;;;;;;;;;20.90;58.60;;;;;;1525804;76;719;-67
2023/02/05 11:04:06;;;;;;;;;;;20.90;58.60;;;;;;1522050;76;1694;-66
2023/02/05 11:06:08;;;;;;;;;;;20.90;58.50;;;;;;1537971;76;1911;-66
2023/02/05 11:08:28;;;;;;;;;;;20.90;58.60;;;;;;1526451;76;770;-66
2023/02/05 11:10:31;;;;;;;;;;;20.90;58.50;;;;;;1529782;76;1493;-67
2023/02/05 11:12:33;;;;;;;;;;;20.80;58.40;;;;;;1524539;76;704;-68
2023/02/05 11:14:37;;;;;;;;;;;20.70;58.10;;;;;;1523725;76;1193;-70
2023/02/05 11:16:40;;;;;;;;;;;20.80;56.60;;;;;;1533538;76;674;-71
2023/02/05 11:18:46;;;;;;;;;;;20.80;56.30;;;;;;1539558;76;673;-71
2023/02/05 11:20:49;;;;;;;;;;;20.90;56.50;;;;;;1530997;76;717;-70
2023/02/05 11:22:53;;;;;;;;;;;20.90;56.60;;;;;;1536888;76;936;-71
2023/02/05 11:24:56;;;;;;;;;;;20.90;56.80;;;;;;1527893;76;1993;-73
2023/02/05 11:27:17;;;;;;;;;;;20.80;56.70;;;;;;1537220;76;1931;-70
2023/02/05 11:29:19;;;;;;;;;;;20.80;56.90;;;;;;1529462;76;724;-65
2023/02/05 11:31:24;;;;;;;;;;;20.70;57.20;;;;;;1529456;76;700;-65
2023/02/05 11:33:26;;;;;;;;;;;20.80;57.20;;;;;;1543837;76;724;-68
2023/02/05 11:35:31;;;;;;;;;;;20.80;57.00;;;;;;1547201;76;1104;-66
2023/02/05 11:37:33;;;;;;;;;;;20.80;56.80;;;;;;1539159;76;743;-67
2023/02/05 11:39:36;;;;;;;;;;;20.90;56.80;;;;;;1544870;76;713;-69
2023/02/05 11:41:48;;;;;;;;;;;20.90;56.70;;;;;;1537116;76;789;-67
2023/02/05 11:43:50;;;;;;;;;;;20.90;56.60;;;;;;1532165;76;1177;-67
2023/02/05 11:45:52;;;;;;;;;;;20.90;56.50;;;;;;1541242;76;785;-67
2023/02/05 11:47:54;;;;;;;;;;;20.90;56.50;;;;;;1539326;76;1935;-66
2023/02/05 11:49:55;;;;;;;;;;;20.90;56.40;;;;;;1531412;76;661;-66
2023/02/05 11:51:57;;;;;;;;;;;20.90;56.40;;;;;;1540539;76;704;-68
2023/02/05 11:53:59;;;;;;;;;;;20.90;56.60;;;;;;1529466;76;1099;-69
2023/02/05 11:56:02;;;;;;;;;;;20.90;56.70;;;;;;1533292;76;724;-69
2023/02/05 11:58:05;;;;;;;;;;;20.90;57.30;;;;;;1531821;76;782;-73
2023/02/05 12:00:11;;;;;;;;;;;20.70;57.50;;;;;;1545421;76;760;-69
2023/02/05 12:02:30;;;;;;;;;;;20.70;58.30;;;;;;1538598;76;862;-69
2023/02/05 12:04:32;;;;;;;;;;;20.70;58.40;;;;;;1551214;76;1244;-69
2023/02/05 12:06:35;;;;;;;;;;;20.80;58.30;;;;;;1532825;76;1928;-71
2023/02/05 12:08:39;;;;;;;;;;;20.70;58.30;;;;;;1529770;76;1047;-69
2023/02/05 12:10:42;;;;;;;;;;;20.70;58.20;;;;;;1532346;76;764;-71
2023/02/05 12:12:51;;;;;;;;;;;20.70;58.10;;;;;;1534755;76;753;-71
2023/02/05 12:14:55;;;;;;;;;;;20.80;57.60;;;;;;1522992;76;1808;-69
2023/02/05 12:16:58;;;;;;;;;;;20.80;57.20;;;;;;1522387;76;1111;-68
2023/02/05 12:19:14;;;;;;;;;;;20.70;56.40;;;;;;1525865;76;1015;-68